sensor_id;sensor_type;location;lat;lon;timestamp;P1;durP1;ratioP1;P2;durP2;ratioP2
18649;SDS011;9454;53.516;10.478;2023-10-13T00:00:31;11.13;;;1.27;;
18649;SDS011;9454;53.516;10.478;2023-10-13T00:03:40;5.25;;;1.52;;
18649;SDS011;9454;53.516;10.478;2023-10-13T00:06:44;6.45;;;1.35;;
18649;SDS011;9454;53.516;10.478;2023-10-13T00:09:50;5.72;;;1.23;;
18649;SDS011;9454;53.516;10.478;2023-10-13T00:12:55;3.50;;;1.40;;
18649;SDS011;9454;53.516;10.478;2023-10-13T00:16:11;13.85;;;1.65;;
18649;SDS011;9454;53.516;10.478;2023-10-13T00:19:21;18.50;;;1.52;;
18649;SDS011;9454;53.516;10.478;2023-10-13T00:22:25;12.18;;;1.70;;
18649;SDS011;9454;53.516;10.478;2023-10-13T00:25:32;10.85;;;1.63;;
18649;SDS011;9454;53.516;10.478;2023-10-13T00:28:45;7.43;;;1.60;;
18649;SDS011;9454;53.516;10.478;2023-10-13T00:31:49;5.65;;;1.77;;
18649;SDS011;9454;53.516;10.478;2023-10-13T00:34:56;5.72;;;1.58;;
18649;SDS011;9454;53.516;10.478;2023-10-13T00:37:59;8.60;;;1.48;;
18649;SDS011;9454;53.516;10.478;2023-10-13T00:41:06;7.00;;;1.98;;
18649;SDS011;9454;53.516;10.478;2023-10-13T00:44:17;6.10;;;1.70;;
18649;SDS011;9454;53.516;10.478;2023-10-13T00:47:27;11.73;;;1.77;;
18649;SDS011;9454;53.516;10.478;2023-10-13T00:50:50;8.77;;;1.50;;
18649;SDS011;9454;53.516;10.478;2023-10-13T00:53:58;7.57;;;1.90;;
18649;SDS011;9454;53.516;10.478;2023-10-13T00:57:04;12.25;;;1.60;;
18649;SDS011;9454;53.516;10.478;2023-10-13T01:00:13;9.00;;;1.58;;
18649;SDS011;9454;53.516;10.478;2023-10-13T01:03:26;4.82;;;1.40;;
18649;SDS011;9454;53.516;10.478;2023-10-13T01:06:30;6.85;;;1.52;;
18649;SDS011;9454;53.516;10.478;2023-10-13T01:09:39;8.27;;;1.58;;
18649;SDS011;9454;53.516;10.478;2023-10-13T01:12:44;9.27;;;1.23;;
18649;SDS011;9454;53.516;10.478;2023-10-13T01:15:48;4.97;;;1.55;;
18649;SDS011;9454;53.516;10.478;2023-10-13T01:18:52;8.77;;;1.80;;
18649;SDS011;9454;53.516;10.478;2023-10-13T01:22:04;5.07;;;1.27;;
18649;SDS011;9454;53.516;10.478;2023-10-13T01:25:10;4.38;;;1.65;;
18649;SDS011;9454;53.516;10.478;2023-10-13T01:28:14;10.32;;;1.58;;
18649;SDS011;9454;53.516;10.478;2023-10-13T01:31:18;7.05;;;1.33;;
18649;SDS011;9454;53.516;10.478;2023-10-13T01:34:31;10.27;;;1.77;;
18649;SDS011;9454;53.516;10.478;2023-10-13T01:37:35;10.88;;;1.60;;
18649;SDS011;9454;53.516;10.478;2023-10-13T01:40:40;6.32;;;1.70;;
18649;SDS011;9454;53.516;10.478;2023-10-13T01:43:44;7.65;;;2.17;;
18649;SDS011;9454;53.516;10.478;2023-10-13T01:46:48;10.13;;;1.80;;
18649;SDS011;9454;53.516;10.478;2023-10-13T01:49:51;8.35;;;1.75;;
18649;SDS011;9454;53.516;10.478;2023-10-13T01:52:54;12.25;;;3.20;;
18649;SDS011;9454;53.516;10.478;2023-10-13T01:56:09;12.20;;;2.10;;
18649;SDS011;9454;53.516;10.478;2023-10-13T01:59:16;9.27;;;2.50;;
18649;SDS011;9454;53.516;10.478;2023-10-13T02:02:21;4.53;;;2.30;;
18649;SDS011;9454;53.516;10.478;2023-10-13T02:05:31;9.75;;;2.05;;
18649;SDS011;9454;53.516;10.478;2023-10-13T02:08:38;12.82;;;2.55;;
18649;SDS011;9454;53.516;10.478;2023-10-13T02:11:46;8.85;;;2.50;;
18649;SDS011;9454;53.516;10.478;2023-10-13T02:14:56;12.68;;;2.85;;
18649;SDS011;9454;53.516;10.478;2023-10-13T02:18:03;15.43;;;3.15;;
18649;SDS011;9454;53.516;10.478;2023-10-13T02:21:08;11.43;;;3.05;;
18649;SDS011;9454;53.516;10.478;2023-10-13T02:24:15;11.27;;;3.28;;
18649;SDS011;9454;53.516;10.478;2023-10-13T02:27:21;17.17;;;3.42;;
18649;SDS011;9454;53.516;10.478;2023-10-13T02:30:25;8.43;;;3.17;;
18649;SDS011;9454;53.516;10.478;2023-10-13T02:33:28;10.98;;;4.00;;
18649;SDS011;9454;53.516;10.478;2023-10-13T02:36:31;10.77;;;3.22;;
18649;SDS011;9454;53.516;10.478;2023-10-13T02:39:48;10.32;;;3.55;;
18649;SDS011;9454;53.516;10.478;2023-10-13T02:42:52;10.25;;;3.65;;
18649;SDS011;9454;53.516;10.478;2023-10-13T02:45:57;11.45;;;3.40;;
18649;SDS011;9454;53.516;10.478;2023-10-13T02:49:01;10.40;;;3.90;;
18649;SDS011;9454;53.516;10.478;2023-10-13T02:52:11;8.43;;;3.60;;
18649;SDS011;9454;53.516;10.478;2023-10-13T02:55:15;12.82;;;3.83;;
18649;SDS011;9454;53.516;10.478;2023-10-13T02:58:28;10.63;;;4.53;;
18649;SDS011;9454;53.516;10.478;2023-10-13T03:01:39;10.32;;;4.10;;
18649;SDS011;9454;53.516;10.478;2023-10-13T03:04:45;11.82;;;4.07;;
18649;SDS011;9454;53.516;10.478;2023-10-13T03:07:49;10.48;;;4.00;;
18649;SDS011;9454;53.516;10.478;2023-10-13T03:10:53;15.38;;;4.18;;
18649;SDS011;9454;53.516;10.478;2023-10-13T03:13:58;13.07;;;4.25;;
18649;SDS011;9454;53.516;10.478;2023-10-13T03:17:08;15.10;;;4.60;;
18649;SDS011;9454;53.516;10.478;2023-10-13T03:20:16;14.88;;;3.97;;
18649;SDS011;9454;53.516;10.478;2023-10-13T03:23:25;9.82;;;4.47;;
18649;SDS011;9454;53.516;10.478;2023-10-13T03:26:28;9.63;;;4.32;;
18649;SDS011;9454;53.516;10.478;2023-10-13T03:29:38;23.00;;;4.75;;
18649;SDS011;9454;53.516;10.478;2023-10-13T03:32:44;9.18;;;4.38;;
18649;SDS011;9454;53.516;10.478;2023-10-13T03:35:50;10.23;;;4.20;;
18649;SDS011;9454;53.516;10.478;2023-10-13T03:38:55;9.68;;;3.30;;
18649;SDS011;9454;53.516;10.478;2023-10-13T03:41:59;14.30;;;3.95;;
18649;SDS011;9454;53.516;10.478;2023-10-13T03:45:09;12.85;;;3.70;;
18649;SDS011;9454;53.516;10.478;2023-10-13T03:48:13;7.32;;;3.65;;
18649;SDS011;9454;53.516;10.478;2023-10-13T03:51:30;9.02;;;3.95;;
18649;SDS011;9454;53.516;10.478;2023-10-13T03:54:35;11.95;;;4.47;;
18649;SDS011;9454;53.516;10.478;2023-10-13T03:57:42;13.63;;;4.05;;
18649;SDS011;9454;53.516;10.478;2023-10-13T04:00:49;9.45;;;3.92;;
18649;SDS011;9454;53.516;10.478;2023-10-13T04:03:53;10.95;;;3.92;;
18649;SDS011;9454;53.516;10.478;2023-10-13T04:07:05;13.68;;;4.68;;
18649;SDS011;9454;53.516;10.478;2023-10-13T04:10:26;10.05;;;4.47;;
18649;SDS011;9454;53.516;10.478;2023-10-13T04:13:47;9.57;;;3.90;;
18649;SDS011;9454;53.516;10.478;2023-10-13T04:17:21;12.05;;;3.65;;
18649;SDS011;9454;53.516;10.478;2023-10-13T04:20:27;7.00;;;3.65;;
18649;SDS011;9454;53.516;10.478;2023-10-13T04:23:39;6.38;;;3.40;;
18649;SDS011;9454;53.516;10.478;2023-10-13T04:26:57;6.53;;;2.72;;
18649;SDS011;9454;53.516;10.478;2023-10-13T04:30:18;6.95;;;2.85;;
18649;SDS011;9454;53.516;10.478;2023-10-13T04:33:31;4.72;;;2.80;;
18649;SDS011;9454;53.516;10.478;2023-10-13T04:36:38;16.02;;;2.90;;
18649;SDS011;9454;53.516;10.478;2023-10-13T04:39:48;5.30;;;2.67;;
18649;SDS011;9454;53.516;10.478;2023-10-13T04:42:58;6.72;;;3.45;;
18649;SDS011;9454;53.516;10.478;2023-10-13T04:46:05;8.68;;;3.72;;
18649;SDS011;9454;53.516;10.478;2023-10-13T04:49:18;9.48;;;3.95;;
18649;SDS011;9454;53.516;10.478;2023-10-13T04:52:31;12.82;;;4.63;;
18649;SDS011;9454;53.516;10.478;2023-10-13T04:56:04;11.80;;;5.65;;
18649;SDS011;9454;53.516;10.478;2023-10-13T04:59:10;13.07;;;5.63;;
18649;SDS011;9454;53.516;10.478;2023-10-13T05:02:37;13.57;;;5.60;;
18649;SDS011;9454;53.516;10.478;2023-10-13T05:06:12;11.88;;;5.88;;
18649;SDS011;9454;53.516;10.478;2023-10-13T05:09:30;15.80;;;6.35;;
18649;SDS011;9454;53.516;10.478;2023-10-13T05:12:51;14.82;;;6.70;;
18649;SDS011;9454;53.516;10.478;2023-10-13T05:16:12;13.00;;;7.03;;
18649;SDS011;9454;53.516;10.478;2023-10-13T05:19:34;17.70;;;7.57;;
18649;SDS011;9454;53.516;10.478;2023-10-13T05:22:56;13.90;;;7.47;;
18649;SDS011;9454;53.516;10.478;2023-10-13T05:26:17;17.05;;;8.15;;
18649;SDS011;9454;53.516;10.478;2023-10-13T05:29:38;14.55;;;6.68;;
18649;SDS011;9454;53.516;10.478;2023-10-13T05:33:01;22.08;;;8.48;;
18649;SDS011;9454;53.516;10.478;2023-10-13T05:36:23;16.95;;;8.63;;
18649;SDS011;9454;53.516;10.478;2023-10-13T05:39:48;16.25;;;8.52;;
18649;SDS011;9454;53.516;10.478;2023-10-13T05:43:17;18.50;;;8.50;;
18649;SDS011;9454;53.516;10.478;2023-10-13T05:46:39;16.80;;;7.45;;
18649;SDS011;9454;53.516;10.478;2023-10-13T05:50:06;21.52;;;9.02;;
18649;SDS011;9454;53.516;10.478;2023-10-13T05:53:19;20.75;;;8.95;;
18649;SDS011;9454;53.516;10.478;2023-10-13T05:56:41;18.70;;;8.30;;
18649;SDS011;9454;53.516;10.478;2023-10-13T06:00:06;19.67;;;9.00;;
18649;SDS011;9454;53.516;10.478;2023-10-13T06:03:27;26.95;;;9.63;;
18649;SDS011;9454;53.516;10.478;2023-10-13T06:06:50;18.20;;;8.98;;
18649;SDS011;9454;53.516;10.478;2023-10-13T06:10:11;31.85;;;9.40;;
18649;SDS011;9454;53.516;10.478;2023-10-13T06:13:34;21.55;;;9.95;;
18649;SDS011;9454;53.516;10.478;2023-10-13T06:16:55;18.80;;;9.55;;
18649;SDS011;9454;53.516;10.478;2023-10-13T06:20:16;22.98;;;9.32;;
18649;SDS011;9454;53.516;10.478;2023-10-13T06:23:38;19.95;;;9.90;;
18649;SDS011;9454;53.516;10.478;2023-10-13T06:26:59;17.83;;;10.27;;
18649;SDS011;9454;53.516;10.478;2023-10-13T06:30:21;19.33;;;9.25;;
18649;SDS011;9454;53.516;10.478;2023-10-13T06:33:25;21.50;;;9.98;;
18649;SDS011;9454;53.516;10.478;2023-10-13T06:36:31;19.15;;;9.95;;
18649;SDS011;9454;53.516;10.478;2023-10-13T06:39:35;27.30;;;10.85;;
18649;SDS011;9454;53.516;10.478;2023-10-13T06:42:39;16.88;;;9.70;;
18649;SDS011;9454;53.516;10.478;2023-10-13T06:45:46;18.00;;;9.93;;
18649;SDS011;9454;53.516;10.478;2023-10-13T06:48:58;28.05;;;10.02;;
18649;SDS011;9454;53.516;10.478;2023-10-13T06:52:04;20.63;;;10.48;;
18649;SDS011;9454;53.516;10.478;2023-10-13T06:55:08;18.92;;;10.15;;
18649;SDS011;9454;53.516;10.478;2023-10-13T06:58:13;18.45;;;10.40;;
18649;SDS011;9454;53.516;10.478;2023-10-13T07:01:19;26.52;;;9.77;;
18649;SDS011;9454;53.516;10.478;2023-10-13T07:04:28;25.02;;;10.15;;
18649;SDS011;9454;53.516;10.478;2023-10-13T07:07:32;18.63;;;10.13;;
18649;SDS011;9454;53.516;10.478;2023-10-13T07:10:37;25.08;;;10.38;;
18649;SDS011;9454;53.516;10.478;2023-10-13T07:13:50;23.95;;;10.25;;
18649;SDS011;9454;53.516;10.478;2023-10-13T07:16:57;17.23;;;9.95;;
18649;SDS011;9454;53.516;10.478;2023-10-13T07:20:01;18.92;;;10.63;;
18649;SDS011;9454;53.516;10.478;2023-10-13T07:23:17;26.63;;;10.85;;
18649;SDS011;9454;53.516;10.478;2023-10-13T07:26:21;22.00;;;9.23;;
18649;SDS011;9454;53.516;10.478;2023-10-13T07:29:25;24.77;;;9.82;;
18649;SDS011;9454;53.516;10.478;2023-10-13T07:32:30;15.00;;;9.27;;
18649;SDS011;9454;53.516;10.478;2023-10-13T07:35:36;32.85;;;9.23;;
18649;SDS011;9454;53.516;10.478;2023-10-13T07:38:39;18.30;;;9.40;;
18649;SDS011;9454;53.516;10.478;2023-10-13T07:41:44;15.77;;;9.10;;
18649;SDS011;9454;53.516;10.478;2023-10-13T07:44:53;20.05;;;8.77;;
18649;SDS011;9454;53.516;10.478;2023-10-13T07:48:00;13.77;;;7.90;;
18649;SDS011;9454;53.516;10.478;2023-10-13T07:51:09;17.40;;;7.43;;
18649;SDS011;9454;53.516;10.478;2023-10-13T07:54:13;16.65;;;7.95;;
18649;SDS011;9454;53.516;10.478;2023-10-13T07:57:23;15.38;;;7.38;;
18649;SDS011;9454;53.516;10.478;2023-10-13T08:00:30;11.63;;;7.18;;
18649;SDS011;9454;53.516;10.478;2023-10-13T08:03:50;14.40;;;6.15;;
18649;SDS011;9454;53.516;10.478;2023-10-13T08:07:06;14.50;;;7.13;;
18649;SDS011;9454;53.516;10.478;2023-10-13T08:10:16;14.77;;;6.35;;
18649;SDS011;9454;53.516;10.478;2023-10-13T08:13:21;16.00;;;5.93;;
18649;SDS011;9454;53.516;10.478;2023-10-13T08:16:25;13.75;;;5.32;;
18649;SDS011;9454;53.516;10.478;2023-10-13T08:19:49;10.85;;;5.82;;
18649;SDS011;9454;53.516;10.478;2023-10-13T08:22:57;9.55;;;4.93;;
18649;SDS011;9454;53.516;10.478;2023-10-13T08:26:14;8.93;;;5.60;;
18649;SDS011;9454;53.516;10.478;2023-10-13T08:29:54;10.07;;;5.72;;
18649;SDS011;9454;53.516;10.478;2023-10-13T08:33:17;12.38;;;5.05;;
18649;SDS011;9454;53.516;10.478;2023-10-13T08:36:30;6.70;;;4.88;;
18649;SDS011;9454;53.516;10.478;2023-10-13T08:39:34;11.27;;;4.70;;
18649;SDS011;9454;53.516;10.478;2023-10-13T08:42:51;10.10;;;4.47;;
18649;SDS011;9454;53.516;10.478;2023-10-13T08:46:13;8.68;;;4.57;;
18649;SDS011;9454;53.516;10.478;2023-10-13T08:49:28;13.07;;;4.57;;
18649;SDS011;9454;53.516;10.478;2023-10-13T08:52:39;5.40;;;3.60;;
18649;SDS011;9454;53.516;10.478;2023-10-13T08:56:05;8.40;;;3.85;;
18649;SDS011;9454;53.516;10.478;2023-10-13T08:59:20;5.22;;;3.40;;
18649;SDS011;9454;53.516;10.478;2023-10-13T09:02:40;6.28;;;3.70;;
18649;SDS011;9454;53.516;10.478;2023-10-13T09:05:58;11.63;;;3.33;;
18649;SDS011;9454;53.516;10.478;2023-10-13T09:09:09;3.75;;;2.83;;
18649;SDS011;9454;53.516;10.478;2023-10-13T09:12:30;9.32;;;3.10;;
18649;SDS011;9454;53.516;10.478;2023-10-13T09:15:40;7.00;;;2.92;;
18649;SDS011;9454;53.516;10.478;2023-10-13T09:19:03;5.30;;;3.67;;
18649;SDS011;9454;53.516;10.478;2023-10-13T09:22:10;3.25;;;2.10;;
18649;SDS011;9454;53.516;10.478;2023-10-13T09:25:31;6.85;;;2.70;;
18649;SDS011;9454;53.516;10.478;2023-10-13T09:28:35;4.40;;;2.88;;
18649;SDS011;9454;53.516;10.478;2023-10-13T09:31:39;2.25;;;1.75;;
18649;SDS011;9454;53.516;10.478;2023-10-13T09:34:41;7.72;;;2.53;;
18649;SDS011;9454;53.516;10.478;2023-10-13T09:37:46;7.60;;;2.15;;
18649;SDS011;9454;53.516;10.478;2023-10-13T09:40:51;2.83;;;2.05;;
18649;SDS011;9454;53.516;10.478;2023-10-13T09:43:59;4.35;;;1.50;;
18649;SDS011;9454;53.516;10.478;2023-10-13T09:47:05;5.30;;;1.85;;
18649;SDS011;9454;53.516;10.478;2023-10-13T09:50:18;2.92;;;1.70;;
18649;SDS011;9454;53.516;10.478;2023-10-13T09:53:26;2.72;;;1.50;;
18649;SDS011;9454;53.516;10.478;2023-10-13T09:56:33;11.95;;;1.98;;
18649;SDS011;9454;53.516;10.478;2023-10-13T09:59:55;3.28;;;1.90;;
18649;SDS011;9454;53.516;10.478;2023-10-13T10:03:15;4.55;;;1.88;;
18649;SDS011;9454;53.516;10.478;2023-10-13T10:06:51;2.85;;;1.70;;
18649;SDS011;9454;53.516;10.478;2023-10-13T10:09:56;9.50;;;1.80;;
18649;SDS011;9454;53.516;10.478;2023-10-13T10:13:01;3.83;;;1.65;;
18649;SDS011;9454;53.516;10.478;2023-10-13T10:16:10;4.47;;;1.80;;
18649;SDS011;9454;53.516;10.478;2023-10-13T10:19:16;12.43;;;2.15;;
18649;SDS011;9454;53.516;10.478;2023-10-13T10:22:27;11.75;;;2.50;;
18649;SDS011;9454;53.516;10.478;2023-10-13T10:25:35;3.08;;;1.80;;
18649;SDS011;9454;53.516;10.478;2023-10-13T10:28:41;11.05;;;2.72;;
18649;SDS011;9454;53.516;10.478;2023-10-13T10:31:56;3.28;;;2.03;;
18649;SDS011;9454;53.516;10.478;2023-10-13T10:35:11;4.45;;;1.80;;
18649;SDS011;9454;53.516;10.478;2023-10-13T10:38:22;3.28;;;2.00;;
18649;SDS011;9454;53.516;10.478;2023-10-13T10:41:33;11.10;;;2.17;;
18649;SDS011;9454;53.516;10.478;2023-10-13T10:44:49;8.73;;;2.33;;
18649;SDS011;9454;53.516;10.478;2023-10-13T10:48:06;4.55;;;1.75;;
18649;SDS011;9454;53.516;10.478;2023-10-13T10:51:19;7.78;;;2.30;;
18649;SDS011;9454;53.516;10.478;2023-10-13T10:54:28;10.93;;;2.00;;
18649;SDS011;9454;53.516;10.478;2023-10-13T10:57:33;7.75;;;2.05;;
18649;SDS011;9454;53.516;10.478;2023-10-13T11:00:40;5.43;;;2.00;;
18649;SDS011;9454;53.516;10.478;2023-10-13T11:03:55;10.57;;;2.30;;
18649;SDS011;9454;53.516;10.478;2023-10-13T11:07:09;8.68;;;2.20;;
18649;SDS011;9454;53.516;10.478;2023-10-13T11:10:13;6.88;;;2.58;;
18649;SDS011;9454;53.516;10.478;2023-10-13T11:13:38;5.15;;;2.22;;
18649;SDS011;9454;53.516;10.478;2023-10-13T11:16:47;6.80;;;2.17;;
18649;SDS011;9454;53.516;10.478;2023-10-13T11:19:55;8.93;;;3.47;;
18649;SDS011;9454;53.516;10.478;2023-10-13T11:22:59;5.13;;;2.60;;
18649;SDS011;9454;53.516;10.478;2023-10-13T11:26:06;9.48;;;2.15;;
18649;SDS011;9454;53.516;10.478;2023-10-13T11:29:13;9.40;;;2.25;;
18649;SDS011;9454;53.516;10.478;2023-10-13T11:32:22;15.35;;;2.38;;
18649;SDS011;9454;53.516;10.478;2023-10-13T11:35:30;14.02;;;2.67;;
18649;SDS011;9454;53.516;10.478;2023-10-13T11:38:51;8.75;;;2.50;;
18649;SDS011;9454;53.516;10.478;2023-10-13T11:41:59;15.98;;;2.58;;
18649;SDS011;9454;53.516;10.478;2023-10-13T11:45:03;8.68;;;2.25;;
18649;SDS011;9454;53.516;10.478;2023-10-13T11:48:32;10.30;;;2.50;;
18649;SDS011;9454;53.516;10.478;2023-10-13T11:51:37;8.02;;;2.45;;
18649;SDS011;9454;53.516;10.478;2023-10-13T11:54:44;10.43;;;2.25;;
18649;SDS011;9454;53.516;10.478;2023-10-13T11:57:49;10.93;;;2.17;;
18649;SDS011;9454;53.516;10.478;2023-10-13T12:00:52;7.78;;;2.22;;
18649;SDS011;9454;53.516;10.478;2023-10-13T12:04:11;8.48;;;2.17;;
18649;SDS011;9454;53.516;10.478;2023-10-13T12:07:34;10.43;;;2.70;;
18649;SDS011;9454;53.516;10.478;2023-10-13T12:10:47;5.68;;;2.20;;
18649;SDS011;9454;53.516;10.478;2023-10-13T12:14:01;11.68;;;2.20;;
18649;SDS011;9454;53.516;10.478;2023-10-13T12:17:13;5.63;;;2.63;;
18649;SDS011;9454;53.516;10.478;2023-10-13T12:20:21;8.32;;;2.65;;
18649;SDS011;9454;53.516;10.478;2023-10-13T12:23:34;9.02;;;2.58;;
18649;SDS011;9454;53.516;10.478;2023-10-13T12:31:11;8.98;;;3.35;;
18649;SDS011;9454;53.516;10.478;2023-10-13T12:34:17;9.30;;;2.40;;
18649;SDS011;9454;53.516;10.478;2023-10-13T12:37:47;14.43;;;2.47;;
18649;SDS011;9454;53.516;10.478;2023-10-13T12:41:09;7.20;;;2.38;;
18649;SDS011;9454;53.516;10.478;2023-10-13T12:44:36;4.97;;;2.35;;
18649;SDS011;9454;53.516;10.478;2023-10-13T12:47:58;14.13;;;2.25;;
18649;SDS011;9454;53.516;10.478;2023-10-13T12:51:19;12.70;;;2.75;;
18649;SDS011;9454;53.516;10.478;2023-10-13T12:54:46;8.93;;;2.45;;
18649;SDS011;9454;53.516;10.478;2023-10-13T12:58:10;9.27;;;2.78;;
18649;SDS011;9454;53.516;10.478;2023-10-13T13:01:14;9.60;;;2.70;;
18649;SDS011;9454;53.516;10.478;2023-10-13T13:04:21;8.88;;;2.67;;
18649;SDS011;9454;53.516;10.478;2023-10-13T13:07:29;16.05;;;3.30;;
18649;SDS011;9454;53.516;10.478;2023-10-13T13:10:46;14.68;;;2.65;;
18649;SDS011;9454;53.516;10.478;2023-10-13T13:13:50;13.95;;;2.72;;
18649;SDS011;9454;53.516;10.478;2023-10-13T13:16:55;11.00;;;2.55;;
18649;SDS011;9454;53.516;10.478;2023-10-13T13:20:07;9.32;;;2.60;;
18649;SDS011;9454;53.516;10.478;2023-10-13T13:23:32;13.93;;;2.63;;
18649;SDS011;9454;53.516;10.478;2023-10-13T13:26:39;27.40;;;2.55;;
18649;SDS011;9454;53.516;10.478;2023-10-13T13:29:51;8.57;;;2.33;;
18649;SDS011;9454;53.516;10.478;2023-10-13T13:32:58;13.00;;;2.90;;
18649;SDS011;9454;53.516;10.478;2023-10-13T13:36:10;27.65;;;3.55;;
18649;SDS011;9454;53.516;10.478;2023-10-13T13:39:18;11.10;;;3.20;;
18649;SDS011;9454;53.516;10.478;2023-10-13T13:42:33;10.40;;;2.60;;
18649;SDS011;9454;53.516;10.478;2023-10-13T13:45:44;7.35;;;2.78;;
18649;SDS011;9454;53.516;10.478;2023-10-13T13:48:48;12.85;;;2.45;;
18649;SDS011;9454;53.516;10.478;2023-10-13T13:51:54;4.70;;;2.53;;
18649;SDS011;9454;53.516;10.478;2023-10-13T13:54:58;11.35;;;2.88;;
18649;SDS011;9454;53.516;10.478;2023-10-13T13:58:06;10.18;;;3.10;;
18649;SDS011;9454;53.516;10.478;2023-10-13T14:01:11;6.80;;;2.60;;
18649;SDS011;9454;53.516;10.478;2023-10-13T14:04:16;9.00;;;2.85;;
18649;SDS011;9454;53.516;10.478;2023-10-13T14:07:21;16.52;;;3.38;;
18649;SDS011;9454;53.516;10.478;2023-10-13T14:10:28;10.32;;;2.50;;
18649;SDS011;9454;53.516;10.478;2023-10-13T14:13:58;11.27;;;2.97;;
18649;SDS011;9454;53.516;10.478;2023-10-13T14:17:06;9.52;;;2.40;;
18649;SDS011;9454;53.516;10.478;2023-10-13T14:20:10;11.73;;;3.28;;
18649;SDS011;9454;53.516;10.478;2023-10-13T14:23:23;6.60;;;2.67;;
18649;SDS011;9454;53.516;10.478;2023-10-13T14:26:27;14.20;;;3.25;;
18649;SDS011;9454;53.516;10.478;2023-10-13T14:29:34;11.30;;;2.80;;
18649;SDS011;9454;53.516;10.478;2023-10-13T14:32:41;11.18;;;3.40;;
18649;SDS011;9454;53.516;10.478;2023-10-13T14:35:46;10.85;;;3.38;;
18649;SDS011;9454;53.516;10.478;2023-10-13T14:38:49;15.57;;;3.78;;
18649;SDS011;9454;53.516;10.478;2023-10-13T14:41:53;11.07;;;3.53;;
18649;SDS011;9454;53.516;10.478;2023-10-13T14:45:02;15.10;;;3.75;;
18649;SDS011;9454;53.516;10.478;2023-10-13T14:48:14;13.45;;;3.03;;
18649;SDS011;9454;53.516;10.478;2023-10-13T14:51:18;11.80;;;3.40;;
18649;SDS011;9454;53.516;10.478;2023-10-13T14:54:22;12.48;;;3.33;;
18649;SDS011;9454;53.516;10.478;2023-10-13T14:57:38;17.80;;;4.25;;
18649;SDS011;9454;53.516;10.478;2023-10-13T15:00:44;15.13;;;3.22;;
18649;SDS011;9454;53.516;10.478;2023-10-13T15:03:54;8.73;;;3.25;;
18649;SDS011;9454;53.516;10.478;2023-10-13T15:06:58;12.10;;;3.47;;
18649;SDS011;9454;53.516;10.478;2023-10-13T15:10:05;16.08;;;3.72;;
18649;SDS011;9454;53.516;10.478;2023-10-13T15:13:08;10.07;;;3.47;;
18649;SDS011;9454;53.516;10.478;2023-10-13T15:16:14;12.20;;;3.47;;
18649;SDS011;9454;53.516;10.478;2023-10-13T15:19:18;5.88;;;3.00;;
18649;SDS011;9454;53.516;10.478;2023-10-13T15:22:22;18.65;;;3.72;;
18649;SDS011;9454;53.516;10.478;2023-10-13T15:25:29;14.43;;;3.63;;
18649;SDS011;9454;53.516;10.478;2023-10-13T15:28:41;13.15;;;2.85;;
18649;SDS011;9454;53.516;10.478;2023-10-13T15:31:51;12.48;;;3.42;;
18649;SDS011;9454;53.516;10.478;2023-10-13T15:35:09;9.55;;;3.33;;
18649;SDS011;9454;53.516;10.478;2023-10-13T15:38:14;19.80;;;4.18;;
18649;SDS011;9454;53.516;10.478;2023-10-13T15:41:21;10.32;;;3.40;;
18649;SDS011;9454;53.516;10.478;2023-10-13T15:44:28;18.75;;;3.60;;
18649;SDS011;9454;53.516;10.478;2023-10-13T15:47:33;13.02;;;4.07;;
18649;SDS011;9454;53.516;10.478;2023-10-13T15:50:40;16.85;;;3.63;;
18649;SDS011;9454;53.516;10.478;2023-10-13T15:53:44;11.57;;;3.47;;
18649;SDS011;9454;53.516;10.478;2023-10-13T15:56:50;11.75;;;4.00;;
18649;SDS011;9454;53.516;10.478;2023-10-13T15:59:56;13.80;;;4.35;;
18649;SDS011;9454;53.516;10.478;2023-10-13T16:03:13;16.73;;;4.07;;
18649;SDS011;9454;53.516;10.478;2023-10-13T16:06:18;15.95;;;3.85;;
18649;SDS011;9454;53.516;10.478;2023-10-13T16:09:26;21.63;;;3.80;;
18649;SDS011;9454;53.516;10.478;2023-10-13T16:12:31;17.63;;;3.90;;
18649;SDS011;9454;53.516;10.478;2023-10-13T16:15:36;19.85;;;4.53;;
18649;SDS011;9454;53.516;10.478;2023-10-13T16:18:46;10.57;;;3.63;;
18649;SDS011;9454;53.516;10.478;2023-10-13T16:21:51;7.85;;;3.50;;
18649;SDS011;9454;53.516;10.478;2023-10-13T16:24:56;16.13;;;3.72;;
18649;SDS011;9454;53.516;10.478;2023-10-13T16:28:19;18.35;;;4.10;;
18649;SDS011;9454;53.516;10.478;2023-10-13T16:31:24;10.75;;;3.85;;
18649;SDS011;9454;53.516;10.478;2023-10-13T16:34:30;7.93;;;3.75;;
18649;SDS011;9454;53.516;10.478;2023-10-13T16:37:34;13.30;;;3.78;;
18649;SDS011;9454;53.516;10.478;2023-10-13T16:40:41;13.02;;;4.93;;
18649;SDS011;9454;53.516;10.478;2023-10-13T16:43:45;17.75;;;4.18;;
18649;SDS011;9454;53.516;10.478;2023-10-13T16:46:49;25.10;;;5.70;;
18649;SDS011;9454;53.516;10.478;2023-10-13T16:49:59;17.50;;;3.75;;
18649;SDS011;9454;53.516;10.478;2023-10-13T16:53:03;14.00;;;4.13;;
18649;SDS011;9454;53.516;10.478;2023-10-13T16:56:09;12.27;;;3.70;;
18649;SDS011;9454;53.516;10.478;2023-10-13T16:59:13;19.08;;;4.45;;
18649;SDS011;9454;53.516;10.478;2023-10-13T17:02:17;11.63;;;3.90;;
18649;SDS011;9454;53.516;10.478;2023-10-13T17:05:23;16.13;;;4.40;;
18649;SDS011;9454;53.516;10.478;2023-10-13T17:08:29;8.55;;;4.07;;
18649;SDS011;9454;53.516;10.478;2023-10-13T17:11:34;11.68;;;3.65;;
18649;SDS011;9454;53.516;10.478;2023-10-13T17:14:42;14.05;;;4.15;;
18649;SDS011;9454;53.516;10.478;2023-10-13T17:17:45;23.92;;;4.30;;
18649;SDS011;9454;53.516;10.478;2023-10-13T17:20:52;10.73;;;4.13;;
18649;SDS011;9454;53.516;10.478;2023-10-13T17:23:56;17.25;;;4.00;;
18649;SDS011;9454;53.516;10.478;2023-10-13T17:27:02;17.85;;;5.43;;
18649;SDS011;9454;53.516;10.478;2023-10-13T17:30:08;23.98;;;5.25;;
18649;SDS011;9454;53.516;10.478;2023-10-13T17:33:13;17.15;;;4.07;;
18649;SDS011;9454;53.516;10.478;2023-10-13T17:36:18;21.98;;;3.72;;
18649;SDS011;9454;53.516;10.478;2023-10-13T17:39:22;12.32;;;3.45;;
18649;SDS011;9454;53.516;10.478;2023-10-13T17:42:26;16.23;;;3.75;;
18649;SDS011;9454;53.516;10.478;2023-10-13T17:45:31;12.25;;;4.53;;
18649;SDS011;9454;53.516;10.478;2023-10-13T17:48:36;21.88;;;4.10;;
18649;SDS011;9454;53.516;10.478;2023-10-13T17:51:41;24.02;;;3.55;;
18649;SDS011;9454;53.516;10.478;2023-10-13T17:54:45;16.35;;;3.28;;
18649;SDS011;9454;53.516;10.478;2023-10-13T17:57:49;15.65;;;3.65;;
18649;SDS011;9454;53.516;10.478;2023-10-13T18:00:52;21.05;;;3.67;;
18649;SDS011;9454;53.516;10.478;2023-10-13T18:03:58;8.43;;;3.47;;
18649;SDS011;9454;53.516;10.478;2023-10-13T18:07:08;16.17;;;3.33;;
18649;SDS011;9454;53.516;10.478;2023-10-13T18:10:16;13.38;;;3.33;;
18649;SDS011;9454;53.516;10.478;2023-10-13T18:13:19;11.20;;;3.70;;
18649;SDS011;9454;53.516;10.478;2023-10-13T18:16:24;12.55;;;3.08;;
18649;SDS011;9454;53.516;10.478;2023-10-13T18:19:28;15.70;;;3.63;;
18649;SDS011;9454;53.516;10.478;2023-10-13T18:22:33;13.55;;;3.17;;
18649;SDS011;9454;53.516;10.478;2023-10-13T18:25:39;12.38;;;3.13;;
18649;SDS011;9454;53.516;10.478;2023-10-13T18:28:44;12.52;;;3.13;;
18649;SDS011;9454;53.516;10.478;2023-10-13T18:31:49;13.23;;;3.28;;
18649;SDS011;9454;53.516;10.478;2023-10-13T18:34:53;6.53;;;2.67;;
18649;SDS011;9454;53.516;10.478;2023-10-13T18:37:58;11.57;;;2.97;;
18649;SDS011;9454;53.516;10.478;2023-10-13T18:41:06;14.77;;;2.53;;
18649;SDS011;9454;53.516;10.478;2023-10-13T18:44:13;16.80;;;3.20;;
18649;SDS011;9454;53.516;10.478;2023-10-13T18:47:16;14.90;;;3.63;;
18649;SDS011;9454;53.516;10.478;2023-10-13T18:50:21;19.13;;;3.95;;
18649;SDS011;9454;53.516;10.478;2023-10-13T18:53:27;18.45;;;4.18;;
18649;SDS011;9454;53.516;10.478;2023-10-13T18:56:30;11.32;;;4.45;;